Time;durP1;ratioP1;P1;durP2;ratioP2;P2;SDS_P1;SDS_P2;PMS_P1;PMS_P2;Temp;Humidity;BMP_temperature;BMP_pressure;BME280_temperature;BME280_humidity;BME280_pressure;Samples;Min_cycle;Max_cycle;Signal;HPM_P1;HPM_P2
2020/12/30 00:01:54;;;;;;;3.42;1.10;;;;;;;4.98;100.00;100542.84;5071166;28;20037;-64
2020/12/30 00:04:20;;;;;;;6.90;1.30;;;;;;;4.99;100.00;100536.38;5071230;28;20040;-64
2020/12/30 00:06:45;;;;;;;5.05;1.15;;;;;;;5.01;100.00;100544.28;5070857;28;20135;-65
2020/12/30 00:09:11;;;;;;;5.70;1.65;;;;;;;5.01;100.00;100553.25;5071086;28;20060;-64
2020/12/30 00:11:36;;;;;;;4.55;1.02;;;;;;;5.04;100.00;100552.84;5071203;28;20091;-64
2020/12/30 00:14:02;;;;;;;6.60;1.23;;;;;;;5.07;100.00;100559.69;5071074;28;20438;-64
2020/12/30 00:16:28;;;;;;;6.10;1.30;;;;;;;5.11;100.00;100564.47;5071252;28;20056;-64
2020/12/30 00:18:54;;;;;;;2.67;1.15;;;;;;;5.22;100.00;100562.16;5070974;28;20064;-63
2020/12/30 00:21:19;;;;;;;5.38;1.60;;;;;;;5.27;100.00;100567.75;5071064;28;20041;-64
2020/12/30 00:23:47;;;;;;;3.25;0.90;;;;;;;5.34;100.00;100568.53;5071111;28;20043;-63
2020/12/30 00:26:18;;;;;;;4.97;1.48;;;;;;;5.38;100.00;100567.06;5071022;28;20486;-63
2020/12/30 00:28:45;;;;;;;5.65;1.30;;;;;;;5.39;100.00;100564.16;5070713;28;20079;-64
2020/12/30 00:31:10;;;;;;;4.55;0.98;;;;;;;5.40;100.00;100582.06;5070802;28;20052;-64
2020/12/30 00:33:36;;;;;;;5.57;1.15;;;;;;;5.42;100.00;100581.84;5071086;28;20037;-63
2020/12/30 00:36:03;;;;;;;9.15;2.20;;;;;;;5.43;100.00;100572.69;5070981;28;20028;-63
2020/12/30 00:38:28;;;;;;;4.72;1.10;;;;;;;5.44;100.00;100577.06;5070905;28;20067;-64
2020/12/30 00:40:54;;;;;;;6.18;1.75;;;;;;;5.44;100.00;100577.88;5070791;28;20064;-63
2020/12/30 00:43:19;;;;;;;6.88;1.25;;;;;;;5.45;100.00;100573.28;5070846;28;20055;-63
2020/12/30 00:45:45;;;;;;;5.65;0.90;;;;;;;5.45;100.00;100584.13;5070849;28;20033;-63
2020/12/30 00:48:10;;;;;;;4.53;1.00;;;;;;;5.45;100.00;100578.72;5070697;28;20486;-63
2020/12/30 00:50:36;;;;;;;7.13;1.52;;;;;;;5.43;100.00;100575.38;5070952;28;20060;-64
2020/12/30 00:53:02;;;;;;;5.95;1.20;;;;;;;5.39;100.00;100579.59;5052851;28;20394;-64
2020/12/30 00:55:27;;;;;;;5.75;1.00;;;;;;;5.37;100.00;100573.53;5052788;28;20041;-63
2020/12/30 00:57:53;;;;;;;4.30;0.90;;;;;;;5.35;100.00;100567.50;5070686;28;20041;-64
2020/12/30 01:00:18;;;;;;;5.43;1.45;;;;;;;5.31;100.00;100577.09;5070669;28;20033;-64
2020/12/30 01:02:44;;;;;;;9.13;1.50;;;;;;;5.30;100.00;100575.44;5070850;28;20547;-64
2020/12/30 01:05:09;;;;;;;5.25;1.17;;;;;;;5.29;100.00;100573.78;5070798;28;20570;-64
2020/12/30 01:07:35;;;;;;;4.60;1.60;;;;;;;5.27;100.00;100567.75;5052671;28;20033;-65
2020/12/30 01:10:01;;;;;;;8.48;1.13;;;;;;;5.25;100.00;100580.66;5070545;28;20035;-64
2020/12/30 01:12:26;;;;;;;6.50;1.50;;;;;;;5.27;100.00;100575.88;5070686;28;20402;-63
2020/12/30 01:14:52;;;;;;;10.00;1.30;;;;;;;5.25;100.00;100573.38;5070618;28;20048;-64
2020/12/30 01:17:17;;;;;;;7.65;1.60;;;;;;;5.25;100.00;100575.25;5070559;28;20043;-64
2020/12/30 01:19:43;;;;;;;4.97;1.67;;;;;;;5.24;100.00;100582.56;5072687;28;20037;-65
2020/12/30 01:22:08;;;;;;;8.00;1.73;;;;;;;5.23;100.00;100574.66;5074317;28;20437;-64
2020/12/30 01:24:34;;;;;;;8.10;1.42;;;;;;;5.21;100.00;100574.84;5074120;28;20504;-64
2020/12/30 01:26:59;;;;;;;13.38;1.27;;;;;;;5.21;100.00;100582.16;5074153;28;20394;-63
2020/12/30 01:29:25;;;;;;;7.05;1.17;;;;;;;5.19;100.00;100595.03;5073965;28;20483;-64
2020/12/30 01:31:51;;;;;;;5.53;1.58;;;;;;;5.15;100.00;100573.81;5073920;28;20056;-64
2020/12/30 01:34:16;;;;;;;8.60;1.73;;;;;;;5.14;100.00;100582.16;5073993;28;20036;-64
2020/12/30 01:36:42;;;;;;;8.43;1.75;;;;;;;5.12;100.00;100582.38;5073920;28;20041;-63
2020/12/30 01:39:08;;;;;;;4.75;1.30;;;;;;;5.11;100.00;100588.81;5073846;28;20047;-64
2020/12/30 01:41:33;;;;;;;6.85;1.58;;;;;;;5.08;100.00;100589.25;5055930;28;20044;-64
2020/12/30 01:44:04;;;;;;;7.55;1.25;;;;;;;5.05;100.00;100584.28;5073929;28;20042;-64
2020/12/30 01:46:45;;;;;;;13.00;2.05;;;;;;;5.06;100.00;100594.06;5073873;28;20028;-64
2020/12/30 01:49:16;;;;;;;7.85;1.77;;;;;;;5.03;100.00;100586.38;5073742;28;20040;-64
2020/12/30 01:51:42;;;;;;;6.13;1.20;;;;;;;4.98;100.00;100596.97;5073795;28;20029;-64
2020/12/30 01:54:11;;;;;;;6.88;1.30;;;;;;;4.96;100.00;100596.34;5073748;28;20040;-64
2020/12/30 01:56:37;;;;;;;6.60;1.75;;;;;;;4.94;100.00;100603.84;5073758;28;20036;-63
2020/12/30 01:59:08;;;;;;;7.85;1.77;;;;;;;4.93;100.00;100606.78;5073507;28;20038;-65
2020/12/30 02:01:42;;;;;;;9.70;1.40;;;;;;;4.93;100.00;100609.47;5073567;28;20058;-64
2020/12/30 02:04:10;;;;;;;5.60;1.67;;;;;;;4.93;100.00;100623.00;5073642;28;20036;-65
2020/12/30 02:06:36;;;;;;;8.27;1.75;;;;;;;4.93;100.00;100629.25;5073955;28;20313;-63
2020/12/30 02:09:03;;;;;;;7.32;1.30;;;;;;;4.93;100.00;100636.53;5073430;28;20040;-65
2020/12/30 02:11:30;;;;;;;5.93;1.40;;;;;;;4.91;100.00;100639.47;5073525;28;20380;-64
2020/12/30 02:14:04;;;;;;;9.07;1.98;;;;;;;4.91;100.00;100634.06;5073360;28;20375;-63
2020/12/30 02:16:31;;;;;;;8.52;1.60;;;;;;;4.91;100.00;100642.16;5073478;28;20485;-63
2020/12/30 02:18:58;;;;;;;12.38;2.53;;;;;;;4.91;100.00;100639.47;5073181;28;20032;-64
2020/12/30 02:21:24;;;;;;;10.18;1.55;;;;;;;4.92;100.00;100649.25;5073188;28;20051;-65
2020/12/30 02:23:51;;;;;;;6.22;1.60;;;;;;;4.93;100.00;100656.31;5073267;28;20047;-63
2020/12/30 02:26:17;;;;;;;7.75;1.48;;;;;;;4.93;100.00;100656.31;5073261;28;20045;-64
2020/12/30 02:28:42;;;;;;;8.77;1.83;;;;;;;4.93;100.00;100659.03;5073159;28;20173;-63
2020/12/30 02:31:08;;;;;;;9.55;1.65;;;;;;;4.93;100.00;100661.72;5072500;28;20345;-65
2020/12/30 02:33:33;;;;;;;6.20;1.63;;;;;;;4.92;100.00;100656.53;5073084;28;20032;-63
2020/12/30 02:35:59;;;;;;;13.32;1.77;;;;;;;4.90;100.00;100672.97;5073075;28;20441;-64
2020/12/30 02:38:25;;;;;;;15.35;1.80;;;;;;;4.88;100.00;100664.25;5072773;28;20463;-64
2020/12/30 02:40:51;;;;;;;18.60;2.70;;;;;;;4.87;100.00;100668.00;5072791;28;20036;-64
2020/12/30 02:43:16;;;;;;;16.42;2.80;;;;;;;4.87;100.00;100662.59;5072749;28;20036;-65
2020/12/30 02:45:42;;;;;;;14.07;2.00;;;;;;;4.85;100.00;100667.34;5072837;28;20044;-63
2020/12/30 02:48:08;;;;;;;18.92;2.58;;;;;;;4.86;100.00;100666.34;5054623;28;20402;-64
2020/12/30 02:50:37;;;;;;;13.25;2.22;;;;;;;4.85;100.00;100680.88;5072941;28;20098;-65
2020/12/30 02:53:03;;;;;;;15.80;2.47;;;;;;;4.83;100.00;100674.84;5072563;28;20040;-65
2020/12/30 02:55:29;;;;;;;14.07;2.67;;;;;;;4.83;100.00;100672.13;5072501;28;20041;-63
2020/12/30 02:57:54;;;;;;;17.30;2.03;;;;;;;4.82;100.00;100673.19;5072456;28;20037;-64
2020/12/30 03:00:20;;;;;;;19.92;1.98;;;;;;;4.81;100.00;100671.50;5072491;28;20044;-64
2020/12/30 03:02:46;;;;;;;13.10;2.25;;;;;;;4.82;100.00;100667.75;5072422;28;20490;-63
2020/12/30 03:05:11;;;;;;;22.73;2.25;;;;;;;4.82;100.00;100670.47;5072508;28;20051;-64
2020/12/30 03:07:37;;;;;;;23.35;2.60;;;;;;;4.83;100.00;100661.31;5072360;28;20032;-63
2020/12/30 03:10:03;;;;;;;15.70;2.38;;;;;;;4.84;100.00;100662.97;5072220;28;20448;-64
2020/12/30 03:12:32;;;;;;;15.35;2.25;;;;;;;4.85;100.00;100664.63;5072640;28;20039;-64
2020/12/30 03:14:58;;;;;;;16.98;2.85;;;;;;;4.86;100.00;100660.91;5072161;28;20044;-64
2020/12/30 03:17:23;;;;;;;19.98;2.85;;;;;;;4.86;100.00;100671.75;5072257;28;20045;-64
2020/12/30 03:19:49;;;;;;;17.65;2.25;;;;;;;4.85;100.00;100670.03;5071971;28;20131;-65
2020/12/30 03:22:14;;;;;;;15.45;3.15;;;;;;;4.88;100.00;100666.13;5072183;28;20123;-64
2020/12/30 03:24:40;;;;;;;17.05;2.65;;;;;;;4.89;100.00;100668.63;5054042;28;20042;-65
2020/12/30 03:27:05;;;;;;;29.15;2.92;;;;;;;4.90;100.00;100662.16;5072081;28;20131;-64
2020/12/30 03:29:31;;;;;;;10.85;2.25;;;;;;;4.91;100.00;100666.53;5071705;28;20051;-65
2020/12/30 03:31:57;;;;;;;21.20;2.28;;;;;;;4.96;100.00;100669.44;5071853;28;20037;-64
2020/12/30 03:34:23;;;;;;;15.50;2.00;;;;;;;4.98;100.00;100664.63;5054134;28;20513;-64
2020/12/30 03:36:48;;;;;;;13.52;1.88;;;;;;;5.00;100.00;100670.66;5071921;28;20040;-65
2020/12/30 03:39:14;;;;;;;16.70;2.50;;;;;;;4.99;100.00;100658.19;5071797;28;20055;-65
2020/12/30 03:41:39;;;;;;;20.65;2.20;;;;;;;4.99;100.00;100660.88;5070888;28;20098;-64
2020/12/30 03:44:06;;;;;;;18.40;2.97;;;;;;;5.02;100.00;100659.63;5071684;28;20060;-64
2020/12/30 03:46:32;;;;;;;19.92;2.10;;;;;;;5.02;100.00;100665.88;5053712;28;20471;-64
2020/12/30 03:48:57;;;;;;;14.57;1.85;;;;;;;5.02;100.00;100657.75;5071445;28;20040;-64
2020/12/30 03:51:23;;;;;;;11.75;1.92;;;;;;;5.00;100.00;100665.25;5071591;28;20047;-63
2020/12/30 03:53:52;;;;;;;14.38;2.35;;;;;;;5.01;100.00;100669.63;5071520;28;20044;-64
2020/12/30 03:56:18;;;;;;;10.68;1.92;;;;;;;4.98;100.00;100669.22;5071484;28;20173;-65
2020/12/30 03:58:44;;;;;;;22.67;3.33;;;;;;;4.96;100.00;100665.88;5053251;28;20048;-65
2020/12/30 04:01:09;;;;;;;17.60;2.00;;;;;;;4.93;100.00;100667.16;5071126;28;20052;-64
2020/12/30 04:03:35;;;;;;;14.40;2.38;;;;;;;4.92;100.00;100667.34;5071067;28;20045;-64
2020/12/30 04:06:00;;;;;;;15.10;2.65;;;;;;;4.89;100.00;100660.50;5071189;28;20105;-65
2020/12/30 04:08:26;;;;;;;12.93;1.90;;;;;;;4.87;100.00;100668.00;5070993;28;20048;-65
2020/12/30 04:10:52;;;;;;;14.43;2.25;;;;;;;4.87;100.00;100672.56;5071160;28;20090;-64
2020/12/30 04:13:17;;;;;;;12.18;1.75;;;;;;;4.86;100.00;100677.16;5070921;28;20235;-64
2020/12/30 04:15:46;;;;;;;12.30;2.00;;;;;;;4.85;100.00;100675.47;5070870;28;20044;-65
2020/12/30 04:18:12;;;;;;;13.38;1.73;;;;;;;4.84;100.00;100680.03;5070880;28;20483;-65
2020/12/30 04:20:38;;;;;;;13.85;2.03;;;;;;;4.84;100.00;100674.63;5071048;28;20036;-64
2020/12/30 04:23:03;;;;;;;12.00;1.90;;;;;;;4.84;100.00;100679.22;5070951;28;20071;-64
2020/12/30 04:25:29;;;;;;;11.23;2.22;;;;;;;4.83;100.00;100677.53;5070838;28;20068;-64
2020/12/30 04:27:54;;;;;;;11.82;1.88;;;;;;;4.82;100.00;100676.72;5070951;28;20505;-63
2020/12/30 04:30:20;;;;;;;16.42;2.10;;;;;;;4.81;100.00;100679.63;5070580;28;20041;-63
2020/12/30 04:32:45;;;;;;;16.23;2.38;;;;;;;4.80;100.00;100686.91;5070731;28;20530;-65
2020/12/30 04:35:11;;;;;;;11.32;1.90;;;;;;;4.80;100.00;100681.50;5070813;28;20036;-64
2020/12/30 04:37:36;;;;;;;12.30;1.63;;;;;;;4.81;100.00;100679.63;5071090;28;20040;-64
2020/12/30 04:40:03;;;;;;;14.93;1.60;;;;;;;4.83;100.00;100677.53;5070701;28;20106;-64
2020/12/30 04:42:35;;;;;;;13.02;1.83;;;;;;;4.82;100.00;100675.88;5070769;28;20040;-64
2020/12/30 04:45:09;;;;;;;8.80;1.75;;;;;;;4.83;100.00;100677.53;5070787;28;20094;-64
2020/12/30 04:47:36;;;;;;;16.90;2.30;;;;;;;4.84;100.00;100680.03;5070887;28;20064;-64
2020/12/30 04:50:03;;;;;;;11.55;1.70;;;;;;;4.86;100.00;100671.75;5070582;28;20115;-64
2020/12/30 04:52:29;;;;;;;17.13;1.73;;;;;;;4.89;100.00;100675.91;5071156;28;20551;-63
2020/12/30 04:54:55;;;;;;;13.48;2.17;;;;;;;4.91;100.00;100671.09;5074739;28;20040;-63
2020/12/30 04:57:24;;;;;;;11.13;1.95;;;;;;;4.92;100.00;100665.47;5075164;28;20067;-63
2020/12/30 04:59:52;;;;;;;13.57;2.00;;;;;;;4.94;100.00;100663.41;5074575;28;20090;-65
2020/12/30 05:02:26;;;;;;;17.52;2.10;;;;;;;4.94;100.00;100660.69;5074546;28;20142;-64
2020/12/30 05:04:52;;;;;;;10.15;1.70;;;;;;;4.95;100.00;100669.63;5074506;28;20043;-63
2020/12/30 05:07:17;;;;;;;14.77;2.28;;;;;;;4.96;100.00;100663.19;5074390;28;20123;-65
2020/12/30 05:09:44;;;;;;;7.50;1.55;;;;;;;4.97;100.00;100662.97;5074458;28;20253;-64
2020/12/30 05:12:13;;;;;;;7.40;1.42;;;;;;;4.97;100.00;100662.97;5074338;28;20028;-64
2020/12/30 05:14:40;;;;;;;20.00;3.10;;;;;;;4.98;100.00;100659.22;5074271;28;20036;-63
2020/12/30 05:17:07;;;;;;;11.70;2.40;;;;;;;4.98;100.00;100653.81;5074373;28;20513;-64
2020/12/30 05:19:33;;;;;;;13.20;1.92;;;;;;;4.97;100.00;100657.56;5073999;28;20090;-64
2020/12/30 05:21:58;;;;;;;12.75;2.40;;;;;;;4.97;100.00;100651.31;5074027;28;20538;-64
2020/12/30 05:24:24;;;;;;;9.00;1.30;;;;;;;4.96;100.00;100650.47;5074019;28;20487;-64
2020/12/30 05:26:51;;;;;;;11.50;2.15;;;;;;;4.95;100.00;100658.81;5074052;28;20051;-65
2020/12/30 05:29:18;;;;;;;10.77;2.30;;;;;;;4.95;100.00;100664.22;5074182;28;20046;-63
2020/12/30 05:31:50;;;;;;;13.57;2.03;;;;;;;4.94;100.00;100671.50;5073710;28;20087;-64
2020/12/30 05:34:18;;;;;;;8.35;1.58;;;;;;;4.93;100.00;100677.13;5073990;28;20047;-64
2020/12/30 05:36:45;;;;;;;7.25;1.42;;;;;;;4.93;100.00;100679.84;5073926;28;20048;-64
2020/12/30 05:39:22;;;;;;;12.70;2.38;;;;;;;4.92;100.00;100687.13;5073652;28;20036;-63
2020/12/30 05:41:48;;;;;;;14.07;1.92;;;;;;;4.94;100.00;100695.88;5073750;28;20157;-64
2020/12/30 05:44:18;;;;;;;10.95;1.75;;;;;;;4.93;100.00;100694.22;5073958;28;20086;-64
2020/12/30 05:46:44;;;;;;;14.93;1.90;;;;;;;4.93;100.00;100683.38;5073758;28;20071;-63
2020/12/30 05:49:10;;;;;;;15.60;2.30;;;;;;;4.92;100.00;100681.72;5073633;28;20086;-64
2020/12/30 05:51:36;;;;;;;12.90;2.13;;;;;;;4.93;100.00;100674.44;5073572;28;20036;-65
2020/12/30 05:54:09;;;;;;;17.15;2.70;;;;;;;4.93;100.00;100677.97;5073510;28;20038;-63
2020/12/30 05:56:37;;;;;;;14.98;1.67;;;;;;;4.94;100.00;100676.94;5073537;28;20040;-65
2020/12/30 05:59:04;;;;;;;8.70;1.80;;;;;;;4.95;100.00;100670.47;5073411;28;20037;-65
2020/12/30 06:01:31;;;;;;;11.00;1.98;;;;;;;4.96;100.00;100676.72;5073435;28;20047;-65
2020/12/30 06:04:17;;;;;;;11.10;1.48;;;;;;;4.95;100.00;100678.59;5072747;28;20036;-64
2020/12/30 06:06:47;;;;;;;11.63;1.67;;;;;;;4.95;100.00;100688.59;5073294;28;20036;-64
2020/12/30 06:09:19;;;;;;;7.75;1.83;;;;;;;4.95;100.00;100694.81;5054902;28;20554;-65
2020/12/30 06:11:53;;;;;;;10.70;1.73;;;;;;;4.93;100.00;100677.97;5055232;28;20032;-64
2020/12/30 06:14:20;;;;;;;10.27;2.03;;;;;;;4.91;100.00;100690.88;5073137;28;20032;-65
2020/12/30 06:16:46;;;;;;;9.40;1.67;;;;;;;4.92;100.00;100687.13;5073168;28;20059;-65
2020/12/30 06:19:13;;;;;;;9.60;1.30;;;;;;;4.91;100.00;100688.19;5054965;28;20044;-64
2020/12/30 06:21:45;;;;;;;12.00;2.58;;;;;;;4.92;100.00;100702.53;5073241;28;20043;-64
2020/12/30 06:24:13;;;;;;;10.77;1.65;;;;;;;4.90;100.00;100686.50;5073053;28;20349;-63
2020/12/30 06:26:40;;;;;;;11.45;1.80;;;;;;;4.90;100.00;100683.81;5072940;28;20028;-65
2020/12/30 06:29:11;;;;;;;9.35;1.42;;;;;;;4.90;100.00;100683.81;5072764;28;20037;-64
2020/12/30 06:31:49;;;;;;;13.73;1.65;;;;;;;4.91;100.00;100674.66;5072810;28;20371;-64
2020/12/30 06:34:16;;;;;;;8.13;1.45;;;;;;;4.90;100.00;100674.84;5072844;28;20044;-64
2020/12/30 06:36:44;;;;;;;10.88;1.58;;;;;;;4.90;100.00;100664.88;5072872;28;20044;-64
2020/12/30 06:39:23;;;;;;;11.68;1.60;;;;;;;4.90;100.00;100662.16;5072733;28;20056;-64
2020/12/30 06:41:59;;;;;;;14.13;1.45;;;;;;;4.90;100.00;100672.97;5054681;28;20072;-64
2020/12/30 06:44:43;;;;;;;9.02;1.40;;;;;;;4.90;100.00;100678.41;5072535;28;20048;-64
2020/12/30 06:47:14;;;;;;;12.90;1.98;;;;;;;4.90;100.00;100672.97;5072582;28;20036;-64
2020/12/30 06:49:40;;;;;;;9.68;1.88;;;;;;;4.89;100.00;100667.78;5072432;28;20032;-65
2020/12/30 06:52:28;;;;;;;9.02;1.45;;;;;;;4.89;100.00;100676.72;5072585;28;20533;-64
2020/12/30 06:54:55;;;;;;;19.42;2.15;;;;;;;4.87;100.00;100684.22;5072506;28;20070;-63
2020/12/30 06:57:41;;;;;;;11.88;2.53;;;;;;;4.84;100.00;100685.44;5072408;28;20086;-65
2020/12/30 07:00:39;;;;;;;10.05;2.05;;;;;;;4.82;100.00;100681.28;5072114;28;20097;-64
2020/12/30 07:03:18;;;;;;;13.32;2.17;;;;;;;4.80;100.00;100684.22;5016847;28;20530;-64
2020/12/30 07:05:45;;;;;;;8.57;1.23;;;;;;;4.79;100.00;100687.13;5072213;28;20055;-64
2020/12/30 07:08:31;;;;;;;17.58;1.73;;;;;;;4.78;100.00;100690.88;5072074;28;20623;-65
2020/12/30 07:10:57;;;;;;;19.40;3.42;;;;;;;4.78;100.00;100699.00;5072045;28;20032;-65
2020/12/30 07:13:27;;;;;;;10.85;1.80;;;;;;;4.75;100.00;100686.72;5072035;28;20390;-64
2020/12/30 07:16:17;;;;;;;12.60;1.70;;;;;;;4.76;100.00;100701.06;5071983;28;20032;-64
2020/12/30 07:18:47;;;;;;;16.83;2.38;;;;;;;4.75;100.00;100702.94;5072228;28;20025;-64
2020/12/30 07:21:14;;;;;;;9.63;1.75;;;;;;;4.75;100.00;100702.94;5071730;28;20073;-65
2020/12/30 07:23:42;;;;;;;8.63;1.90;;;;;;;4.75;100.00;100713.78;5071873;28;20071;-64
2020/12/30 07:26:19;;;;;;;11.88;1.65;;;;;;;4.75;100.00;100718.34;5071847;28;20034;-65
2020/12/30 07:28:45;;;;;;;12.43;2.05;;;;;;;4.74;100.00;100713.97;5071726;28;20040;-65
2020/12/30 07:31:12;;;;;;;14.32;1.60;;;;;;;4.74;100.00;100716.69;5071559;28;20054;-64
2020/12/30 07:33:39;;;;;;;11.02;1.73;;;;;;;4.76;100.00;100720.00;5071547;28;20093;-64
2020/12/30 07:36:08;;;;;;;12.45;1.65;;;;;;;4.77;100.00;100721.69;5071571;28;20044;-64
2020/12/30 07:38:35;;;;;;;9.20;1.55;;;;;;;4.77;100.00;100716.25;5071417;28;20134;-64
2020/12/30 07:41:06;;;;;;;8.88;1.40;;;;;;;4.76;100.00;100710.03;5071537;28;20471;-65
2020/12/30 07:43:49;;;;;;;10.23;1.23;;;;;;;4.75;100.00;100713.78;5071843;28;20077;-64
2020/12/30 07:46:19;;;;;;;11.07;1.65;;;;;;;4.75;100.00;100702.13;5071377;28;20098;-65
2020/12/30 07:48:45;;;;;;;10.10;1.25;;;;;;;4.75;100.00;100707.53;5071204;28;20546;-65
2020/12/30 07:51:12;;;;;;;6.50;1.23;;;;;;;4.74;100.00;100711.28;5071304;28;20120;-65
2020/12/30 07:53:38;;;;;;;11.73;2.45;;;;;;;4.73;100.00;100704.19;5053153;28;20069;-63
2020/12/30 07:56:04;;;;;;;6.47;1.42;;;;;;;4.73;100.00;100709.63;5071230;28;20044;-64
2020/12/30 07:58:29;;;;;;;7.40;1.33;;;;;;;4.72;100.00;100716.06;5071211;28;20046;-64
2020/12/30 08:00:56;;;;;;;13.00;1.38;;;;;;;4.69;100.00;100711.91;5071626;28;20060;-64
2020/12/30 08:03:22;;;;;;;13.35;1.55;;;;;;;4.68;100.00;100714.78;5071108;28;20395;-65
2020/12/30 08:05:51;;;;;;;8.68;1.63;;;;;;;4.70;100.00;100704.63;5071037;28;20028;-65
2020/12/30 08:08:19;;;;;;;4.63;1.25;;;;;;;4.69;100.00;100708.38;5070929;28;20037;-64
2020/12/30 08:10:45;;;;;;;6.07;1.17;;;;;;;4.70;100.00;100710.03;5070977;28;20102;-65
2020/12/30 08:13:11;;;;;;;7.93;1.42;;;;;;;4.71;100.00;100706.28;5071043;28;20049;-64
2020/12/30 08:15:50;;;;;;;7.85;1.00;;;;;;;4.70;100.00;100715.44;5070995;28;20102;-63
2020/12/30 08:18:15;;;;;;;11.02;1.00;;;;;;;4.71;100.00;100723.34;5070966;28;20098;-64
2020/12/30 08:20:41;;;;;;;7.45;1.05;;;;;;;4.72;100.00;100718.78;5070840;28;20482;-64
2020/12/30 08:23:06;;;;;;;6.63;1.15;;;;;;;4.71;100.00;100723.34;5070840;28;20097;-65
2020/12/30 08:25:32;;;;;;;8.80;1.58;;;;;;;4.67;100.00;100723.94;5070884;28;20505;-64
2020/12/30 08:27:58;;;;;;;7.57;1.77;;;;;;;4.65;100.00;100726.03;5070367;28;20514;-65
2020/12/30 08:30:32;;;;;;;9.23;1.83;;;;;;;4.62;100.00;100726.44;5018766;28;20079;-64
2020/12/30 08:33:05;;;;;;;9.70;1.75;;;;;;;4.58;100.00;100727.91;5071212;28;20028;-64
2020/12/30 08:35:33;;;;;;;9.20;1.80;;;;;;;4.56;100.00;100721.88;5070902;28;20415;-64
2020/12/30 08:38:17;;;;;;;9.77;1.50;;;;;;;4.52;100.00;100732.28;5070714;28;20094;-64
2020/12/30 08:40:50;;;;;;;9.07;1.73;;;;;;;4.50;100.00;100727.03;5070589;28;20455;-65
2020/12/30 08:43:35;;;;;;;10.32;2.08;;;;;;;4.47;100.00;100716.63;5070706;28;20055;-65
2020/12/30 08:46:00;;;;;;;;;;;;;;;4.47;100.00;100715.81;5071263;28;20467;-64
2020/12/30 08:48:31;;;;;;;7.30;1.33;;;;;;;4.46;100.00;100719.56;5070621;28;19912;-64
2020/12/30 08:50:57;;;;;;;9.15;2.03;;;;;;;4.46;100.00;100720.38;5071248;28;20040;-63
2020/12/30 08:53:39;;;;;;;11.85;2.17;;;;;;;4.45;100.00;100718.72;5070566;28;20037;-64
2020/12/30 08:56:06;;;;;;;9.60;1.92;;;;;;;4.47;100.00;100719.34;5070561;28;20052;-65
2020/12/30 08:58:32;;;;;;;9.13;1.73;;;;;;;4.49;100.00;100714.56;5070478;28;20051;-65
2020/12/30 09:00:58;;;;;;;8.77;2.53;;;;;;;4.51;100.00;100722.47;5070441;28;20116;-64
2020/12/30 09:03:26;;;;;;;10.45;2.22;;;;;;;4.52;100.00;100716.88;5070549;28;20040;-67
2020/12/30 09:05:53;;;;;;;7.45;2.35;;;;;;;4.54;100.00;100731.03;5070575;28;20107;-64
2020/12/30 09:08:24;;;;;;;6.93;1.63;;;;;;;4.58;100.00;100728.75;5070736;28;20131;-65
2020/12/30 09:10:51;;;;;;;18.35;3.13;;;;;;;4.61;100.00;100727.50;5070352;28;20406;-64
2020/12/30 09:13:18;;;;;;;7.35;1.60;;;;;;;4.63;100.00;100720.00;5070396;28;20040;-64
2020/12/30 09:15:46;;;;;;;10.68;2.45;;;;;;;4.66;100.00;100719.56;5070392;28;20044;-65
2020/12/30 09:18:12;;;;;;;12.18;2.42;;;;;;;4.68;100.00;100722.91;5070281;28;20039;-64
2020/12/30 09:20:38;;;;;;;11.27;2.65;;;;;;;4.71;100.00;100723.34;5070398;28;20036;-64
2020/12/30 09:23:05;;;;;;;12.68;2.28;;;;;;;4.76;100.00;100730.84;5070390;28;20395;-64
2020/12/30 09:25:33;;;;;;;13.60;2.83;;;;;;;4.79;100.00;100725.00;5070353;28;20036;-65
2020/12/30 09:27:59;;;;;;;9.55;2.65;;;;;;;4.82;100.00;100725.41;5070190;28;20046;-64
2020/12/30 09:30:26;;;;;;;12.20;3.25;;;;;;;4.87;100.00;100727.53;5069901;28;20052;-64
2020/12/30 09:32:54;;;;;;;8.43;2.65;;;;;;;4.91;100.00;100723.34;5070155;28;20123;-63
2020/12/30 09:35:27;;;;;;;8.30;2.67;;;;;;;4.95;100.00;100721.06;5070331;28;20093;-64
2020/12/30 09:37:55;;;;;;;9.10;2.20;;;;;;;4.99;100.00;100725.00;5070268;28;20102;-64
2020/12/30 09:40:22;;;;;;;14.30;2.88;;;;;;;5.04;100.00;100726.06;5071990;28;20082;-65
2020/12/30 09:42:48;;;;;;;11.00;2.22;;;;;;;5.08;100.00;100721.91;5073661;28;20528;-63
2020/12/30 09:45:16;;;;;;;9.40;3.20;;;;;;;5.12;100.00;100715.00;5073630;28;20041;-65
2020/12/30 09:47:42;;;;;;;7.55;2.60;;;;;;;5.15;100.00;100719.16;5073687;28;20044;-64
2020/12/30 09:50:10;;;;;;;9.05;3.08;;;;;;;5.20;100.00;100719.38;5073549;28;20036;-65
2020/12/30 09:52:44;;;;;;;14.18;3.95;;;;;;;5.22;100.00;100719.19;5073661;28;20068;-64
2020/12/30 09:55:12;;;;;;;15.70;3.57;;;;;;;5.25;100.00;100724.16;5073726;28;20036;-64
2020/12/30 09:57:38;;;;;;;13.00;2.78;;;;;;;5.27;100.00;100717.50;5072717;28;20039;-65
2020/12/30 10:00:08;;;;;;;10.95;3.17;;;;;;;5.28;100.00;100718.34;5073644;28;20029;-63
2020/12/30 10:02:34;;;;;;;10.27;3.58;;;;;;;5.29;100.00;100715.41;5086385;28;20053;-63
2020/12/30 10:05:00;;;;;;;13.00;3.85;;;;;;;5.29;100.00;100720.81;5093558;28;20489;-64
2020/12/30 10:07:26;;;;;;;10.02;3.60;;;;;;;5.29;100.00;100720.81;5093541;28;20443;-64
2020/12/30 10:09:56;;;;;;;14.25;4.30;;;;;;;5.29;100.00;100717.28;5074347;28;20123;-64
2020/12/30 10:12:23;;;;;;;21.77;5.32;;;;;;;5.28;100.00;100712.91;5093525;28;20042;-64
2020/12/30 10:14:49;;;;;;;15.25;4.40;;;;;;;5.28;100.00;100712.91;5075505;28;20040;-64
2020/12/30 10:17:15;;;;;;;16.52;5.32;;;;;;;5.28;100.00;100718.34;5093389;28;20067;-64
2020/12/30 10:19:40;;;;;;;12.40;4.78;;;;;;;5.27;100.00;100712.09;5093567;28;20135;-63
2020/12/30 10:22:08;;;;;;;12.05;4.28;;;;;;;5.28;100.00;100713.75;5093175;28;20058;-63
2020/12/30 10:24:34;;;;;;;15.75;4.13;;;;;;;5.30;100.00;100710.81;5093304;28;20477;-64
2020/12/30 10:27:00;;;;;;;13.13;5.10;;;;;;;5.31;100.00;100707.91;5093356;28;20511;-64
2020/12/30 10:29:28;;;;;;;12.57;3.50;;;;;;;5.33;100.00;100722.06;5093196;28;20040;-64
2020/12/30 10:31:55;;;;;;;12.38;3.83;;;;;;;5.38;100.00;100721.41;5092868;28;20068;-64
2020/12/30 10:34:22;;;;;;;12.00;3.90;;;;;;;5.39;100.00;100721.25;5093071;28;20390;-64
2020/12/30 10:36:47;;;;;;;14.02;3.92;;;;;;;5.42;100.00;100709.16;5093115;28;20082;-65
2020/12/30 10:39:13;;;;;;;10.18;3.42;;;;;;;5.45;100.00;100711.44;5074508;28;20436;-63
2020/12/30 10:41:39;;;;;;;14.43;4.60;;;;;;;5.47;100.00;100711.22;5092979;28;20431;-64
2020/12/30 10:44:04;;;;;;;11.07;3.42;;;;;;;5.49;100.00;100709.94;5092942;28;20494;-63
2020/12/30 10:46:30;;;;;;;16.13;5.65;;;;;;;5.51;100.00;100702.44;5092974;28;20068;-64
2020/12/30 10:48:55;;;;;;;17.00;5.30;;;;;;;5.53;100.00;100707.66;5092703;28;20040;-64
2020/12/30 10:51:21;;;;;;;12.27;4.75;;;;;;;5.55;100.00;100703.66;5092345;28;20534;-63
2020/12/30 10:53:46;;;;;;;12.43;5.57;;;;;;;5.54;100.00;100702.00;5092575;28;20039;-64
2020/12/30 10:56:13;;;;;;;11.43;4.45;;;;;;;5.54;100.00;100695.75;5092605;28;20474;-64
2020/12/30 10:58:39;;;;;;;7.38;3.72;;;;;;;5.53;100.00;100692.22;5092567;28;20066;-63
2020/12/30 11:01:12;;;;;;;15.32;4.80;;;;;;;5.52;100.00;100687.84;5092503;28;20031;-64
2020/12/30 11:03:38;;;;;;;11.88;4.20;;;;;;;5.50;100.00;100684.53;5074374;28;20489;-62
2020/12/30 11:06:04;;;;;;;10.60;3.95;;;;;;;5.51;100.00;100686.19;5092446;28;20055;-64
2020/12/30 11:08:30;;;;;;;12.27;3.92;;;;;;;5.52;100.00;100679.72;5092221;28;20097;-63
2020/12/30 11:11:00;;;;;;;14.10;3.90;;;;;;;5.54;100.00;100674.91;5092326;28;20463;-64
2020/12/30 11:13:26;;;;;;;12.65;3.58;;;;;;;5.54;100.00;100669.50;5092256;28;20131;-64
2020/12/30 11:15:52;;;;;;;14.77;4.03;;;;;;;5.56;100.00;100670.16;5074186;28;20028;-63
2020/12/30 11:18:18;;;;;;;14.20;4.15;;;;;;;5.57;100.00;100658.25;5092198;28;20040;-63
2020/12/30 11:20:44;;;;;;;10.00;4.53;;;;;;;5.58;100.00;100654.50;5092013;28;20545;-65
2020/12/30 11:23:11;;;;;;;15.55;3.95;;;;;;;5.59;100.00;100650.75;5091947;28;20174;-62
2020/12/30 11:25:37;;;;;;;14.40;4.55;;;;;;;5.62;100.00;100644.06;5092050;28;20467;-64